sensor_id;sensor_type;location;lat;lon;timestamp;temperature;humidity
20372;DHT22;42924;37.564;-122.048;2022-08-03T00:02:21;35.80;99.90
20372;DHT22;42924;37.564;-122.048;2022-08-03T00:04:52;35.70;99.90
20372;DHT22;42924;37.564;-122.048;2022-08-03T00:07:22;35.70;99.90
20372;DHT22;42924;37.564;-122.048;2022-08-03T00:09:54;35.60;99.90
20372;DHT22;42924;37.564;-122.048;2022-08-03T00:12:41;35.60;99.90
20372;DHT22;42924;37.564;-122.048;2022-08-03T00:15:12;35.60;99.90
20372;DHT22;42924;37.564;-122.048;2022-08-03T00:17:47;35.70;99.90
20372;DHT22;42924;37.564;-122.048;2022-08-03T00:20:24;35.60;99.90
20372;DHT22;42924;37.564;-122.048;2022-08-03T00:22:57;35.60;99.90
20372;DHT22;42924;37.564;-122.048;2022-08-03T00:25:27;35.60;99.90
20372;DHT22;42924;37.564;-122.048;2022-08-03T00:27:57;35.60;99.90
20372;DHT22;42924;37.564;-122.048;2022-08-03T00:30:28;35.60;99.90
20372;DHT22;42924;37.564;-122.048;2022-08-03T00:32:58;35.50;99.90
20372;DHT22;42924;37.564;-122.048;2022-08-03T00:35:30;35.50;99.90
20372;DHT22;42924;37.564;-122.048;2022-08-03T00:38:18;35.40;99.90
20372;DHT22;42924;37.564;-122.048;2022-08-03T00:40:50;35.40;99.90
20372;DHT22;42924;37.564;-122.048;2022-08-03T00:43:27;35.30;99.90
20372;DHT22;42924;37.564;-122.048;2022-08-03T00:46:06;35.20;99.90
20372;DHT22;42924;37.564;-122.048;2022-08-03T00:48:39;35.20;99.90
20372;DHT22;42924;37.564;-122.048;2022-08-03T00:51:09;35.10;99.90
20372;DHT22;42924;37.564;-122.048;2022-08-03T00:53:38;35.10;99.90
20372;DHT22;42924;37.564;-122.048;2022-08-03T00:56:11;35.00;99.90
20372;DHT22;42924;37.564;-122.048;2022-08-03T00:58:43;35.00;99.90
20372;DHT22;42924;37.564;-122.048;2022-08-03T01:01:18;35.00;99.90
20372;DHT22;42924;37.564;-122.048;2022-08-03T01:03:48;34.80;99.90
20372;DHT22;42924;37.564;-122.048;2022-08-03T01:06:44;34.80;99.90
20372;DHT22;42924;37.564;-122.048;2022-08-03T01:09:31;34.80;99.90
20372;DHT22;42924;37.564;-122.048;2022-08-03T01:12:17;34.70;99.90
20372;DHT22;42924;37.564;-122.048;2022-08-03T01:14:56;34.70;99.90
20372;DHT22;42924;37.564;-122.048;2022-08-03T01:17:40;34.70;99.90
20372;DHT22;42924;37.564;-122.048;2022-08-03T01:20:16;34.60;99.90
20372;DHT22;42924;37.564;-122.048;2022-08-03T01:23:02;34.60;99.90
20372;DHT22;42924;37.564;-122.048;2022-08-03T01:31:27;34.50;99.90
20372;DHT22;42924;37.564;-122.048;2022-08-03T01:34:30;34.50;99.90
20372;DHT22;42924;37.564;-122.048;2022-08-03T01:37:04;34.40;99.90
20372;DHT22;42924;37.564;-122.048;2022-08-03T01:39:37;34.30;99.90
20372;DHT22;42924;37.564;-122.048;2022-08-03T01:42:10;34.30;99.90
20372;DHT22;42924;37.564;-122.048;2022-08-03T01:44:44;34.30;99.90
20372;DHT22;42924;37.564;-122.048;2022-08-03T01:47:19;34.20;99.90
20372;DHT22;42924;37.564;-122.048;2022-08-03T01:49:52;34.10;99.90
20372;DHT22;42924;37.564;-122.048;2022-08-03T01:52:24;34.10;99.90
20372;DHT22;42924;37.564;-122.048;2022-08-03T01:54:55;34.00;99.90
20372;DHT22;42924;37.564;-122.048;2022-08-03T01:57:28;34.00;99.90
20372;DHT22;42924;37.564;-122.048;2022-08-03T02:00:00;34.00;99.90
20372;DHT22;42924;37.564;-122.048;2022-08-03T02:02:38;33.90;99.90
20372;DHT22;42924;37.564;-122.048;2022-08-03T02:05:13;33.90;99.90
20372;DHT22;42924;37.564;-122.048;2022-08-03T02:07:45;33.90;99.90
20372;DHT22;42924;37.564;-122.048;2022-08-03T02:10:19;33.80;99.90
20372;DHT22;42924;37.564;-122.048;2022-08-03T02:13:05;33.80;99.90
20372;DHT22;42924;37.564;-122.048;2022-08-03T02:15:37;33.70;99.90
20372;DHT22;42924;37.564;-122.048;2022-08-03T02:18:09;33.70;99.90
20372;DHT22;42924;37.564;-122.048;2022-08-03T02:20:42;33.70;99.90
20372;DHT22;42924;37.564;-122.048;2022-08-03T02:23:16;33.70;99.90
20372;DHT22;42924;37.564;-122.048;2022-08-03T02:25:59;33.60;99.90
20372;DHT22;42924;37.564;-122.048;2022-08-03T02:28:42;33.50;99.90
20372;DHT22;42924;37.564;-122.048;2022-08-03T02:31:17;33.40;99.90
20372;DHT22;42924;37.564;-122.048;2022-08-03T02:33:52;33.40;99.90
20372;DHT22;42924;37.564;-122.048;2022-08-03T02:36:28;33.30;99.90
20372;DHT22;42924;37.564;-122.048;2022-08-03T02:39:00;33.20;99.90
20372;DHT22;42924;37.564;-122.048;2022-08-03T02:41:36;33.10;99.90
20372;DHT22;42924;37.564;-122.048;2022-08-03T02:44:08;33.10;99.90
20372;DHT22;42924;37.564;-122.048;2022-08-03T02:46:45;33.00;99.90
20372;DHT22;42924;37.564;-122.048;2022-08-03T02:49:20;32.90;99.90
20372;DHT22;42924;37.564;-122.048;2022-08-03T02:52:11;32.80;99.90
20372;DHT22;42924;37.564;-122.048;2022-08-03T02:54:45;32.80;99.90
20372;DHT22;42924;37.564;-122.048;2022-08-03T02:57:20;32.70;99.90
20372;DHT22;42924;37.564;-122.048;2022-08-03T02:59:56;32.70;99.90
20372;DHT22;42924;37.564;-122.048;2022-08-03T03:02:27;32.70;99.90
20372;DHT22;42924;37.564;-122.048;2022-08-03T03:05:24;32.50;99.90
20372;DHT22;42924;37.564;-122.048;2022-08-03T03:08:17;32.40;99.90
20372;DHT22;42924;37.564;-122.048;2022-08-03T03:10:59;32.30;99.90
20372;DHT22;42924;37.564;-122.048;2022-08-03T03:13:31;32.20;99.90
20372;DHT22;42924;37.564;-122.048;2022-08-03T03:16:03;32.10;99.90
20372;DHT22;42924;37.564;-122.048;2022-08-03T03:18:36;32.00;99.90
20372;DHT22;42924;37.564;-122.048;2022-08-03T03:21:09;32.10;99.90
20372;DHT22;42924;37.564;-122.048;2022-08-03T03:23:41;31.90;99.90
20372;DHT22;42924;37.564;-122.048;2022-08-03T03:26:17;31.80;99.90
20372;DHT22;42924;37.564;-122.048;2022-08-03T03:28:48;31.80;99.90
20372;DHT22;42924;37.564;-122.048;2022-08-03T03:31:18;31.70;99.90
20372;DHT22;42924;37.564;-122.048;2022-08-03T03:33:49;31.50;99.90
20372;DHT22;42924;37.564;-122.048;2022-08-03T03:36:22;31.40;99.90
20372;DHT22;42924;37.564;-122.048;2022-08-03T03:38:53;31.40;99.90
20372;DHT22;42924;37.564;-122.048;2022-08-03T03:41:27;31.40;99.90
20372;DHT22;42924;37.564;-122.048;2022-08-03T03:44:00;31.40;99.90
20372;DHT22;42924;37.564;-122.048;2022-08-03T03:46:30;31.40;99.90
20372;DHT22;42924;37.564;-122.048;2022-08-03T03:49:01;31.10;99.90
20372;DHT22;42924;37.564;-122.048;2022-08-03T03:51:35;31.20;99.90
20372;DHT22;42924;37.564;-122.048;2022-08-03T03:54:09;31.10;99.90
20372;DHT22;42924;37.564;-122.048;2022-08-03T03:56:38;31.00;99.90
20372;DHT22;42924;37.564;-122.048;2022-08-03T03:59:17;30.90;99.90
20372;DHT22;42924;37.564;-122.048;2022-08-03T04:01:47;30.90;99.90
20372;DHT22;42924;37.564;-122.048;2022-08-03T04:04:26;30.90;99.90
20372;DHT22;42924;37.564;-122.048;2022-08-03T04:07:14;30.80;99.90
20372;DHT22;42924;37.564;-122.048;2022-08-03T04:10:13;30.80;99.90
20372;DHT22;42924;37.564;-122.048;2022-08-03T04:13:07;30.70;99.90
20372;DHT22;42924;37.564;-122.048;2022-08-03T04:15:44;30.50;99.90
20372;DHT22;42924;37.564;-122.048;2022-08-03T04:18:18;30.40;99.90
20372;DHT22;42924;37.564;-122.048;2022-08-03T04:20:51;30.30;99.90
20372;DHT22;42924;37.564;-122.048;2022-08-03T04:23:24;30.20;99.90
20372;DHT22;42924;37.564;-122.048;2022-08-03T04:25:55;30.30;99.90
20372;DHT22;42924;37.564;-122.048;2022-08-03T04:28:28;30.20;99.90
20372;DHT22;42924;37.564;-122.048;2022-08-03T04:31:00;30.20;99.90
20372;DHT22;42924;37.564;-122.048;2022-08-03T04:33:35;30.10;99.90
20372;DHT22;42924;37.564;-122.048;2022-08-03T04:36:07;30.20;99.90
20372;DHT22;42924;37.564;-122.048;2022-08-03T04:41:31;30.10;99.90
20372;DHT22;42924;37.564;-122.048;2022-08-03T04:44:24;29.90;99.90
20372;DHT22;42924;37.564;-122.048;2022-08-03T04:46:56;29.90;99.90
20372;DHT22;42924;37.564;-122.048;2022-08-03T04:49:26;29.90;99.90
20372;DHT22;42924;37.564;-122.048;2022-08-03T04:51:59;29.80;99.90
20372;DHT22;42924;37.564;-122.048;2022-08-03T04:54:41;29.80;99.90
20372;DHT22;42924;37.564;-122.048;2022-08-03T04:57:18;29.70;99.90
20372;DHT22;42924;37.564;-122.048;2022-08-03T04:59:52;29.60;99.90
20372;DHT22;42924;37.564;-122.048;2022-08-03T05:02:31;29.60;99.90
20372;DHT22;42924;37.564;-122.048;2022-08-03T05:05:01;29.50;99.90
20372;DHT22;42924;37.564;-122.048;2022-08-03T05:07:31;29.50;99.90
20372;DHT22;42924;37.564;-122.048;2022-08-03T05:10:05;29.50;99.90
20372;DHT22;42924;37.564;-122.048;2022-08-03T05:12:44;29.40;99.90
20372;DHT22;42924;37.564;-122.048;2022-08-03T05:15:14;29.40;99.90
20372;DHT22;42924;37.564;-122.048;2022-08-03T05:17:44;29.30;99.90
20372;DHT22;42924;37.564;-122.048;2022-08-03T05:20:15;29.30;99.90
20372;DHT22;42924;37.564;-122.048;2022-08-03T05:22:48;29.30;99.90
20372;DHT22;42924;37.564;-122.048;2022-08-03T05:25:20;29.30;99.90
20372;DHT22;42924;37.564;-122.048;2022-08-03T05:27:54;29.20;99.90
20372;DHT22;42924;37.564;-122.048;2022-08-03T05:30:35;29.10;99.90
20372;DHT22;42924;37.564;-122.048;2022-08-03T05:33:05;29.20;99.90
20372;DHT22;42924;37.564;-122.048;2022-08-03T05:35:36;29.10;99.90
20372;DHT22;42924;37.564;-122.048;2022-08-03T05:38:31;29.10;99.90
20372;DHT22;42924;37.564;-122.048;2022-08-03T05:41:06;29.00;99.90
20372;DHT22;42924;37.564;-122.048;2022-08-03T05:43:51;29.00;99.90
20372;DHT22;42924;37.564;-122.048;2022-08-03T05:46:22;29.00;99.90
20372;DHT22;42924;37.564;-122.048;2022-08-03T05:48:52;28.80;99.90
20372;DHT22;42924;37.564;-122.048;2022-08-03T05:51:22;28.80;99.90
20372;DHT22;42924;37.564;-122.048;2022-08-03T05:53:52;28.70;99.90
20372;DHT22;42924;37.564;-122.048;2022-08-03T05:56:24;28.80;99.90
20372;DHT22;42924;37.564;-122.048;2022-08-03T05:58:54;28.70;99.90
20372;DHT22;42924;37.564;-122.048;2022-08-03T06:01:26;28.60;99.90
20372;DHT22;42924;37.564;-122.048;2022-08-03T06:03:57;28.50;99.90
20372;DHT22;42924;37.564;-122.048;2022-08-03T06:06:27;28.60;99.90
20372;DHT22;42924;37.564;-122.048;2022-08-03T06:09:00;28.50;99.90
20372;DHT22;42924;37.564;-122.048;2022-08-03T06:11:30;28.50;99.90
20372;DHT22;42924;37.564;-122.048;2022-08-03T06:14:02;28.40;99.90
20372;DHT22;42924;37.564;-122.048;2022-08-03T06:16:33;28.40;99.90
20372;DHT22;42924;37.564;-122.048;2022-08-03T06:19:04;28.50;99.90
20372;DHT22;42924;37.564;-122.048;2022-08-03T06:21:37;28.30;99.90
20372;DHT22;42924;37.564;-122.048;2022-08-03T06:24:08;28.30;99.90
20372;DHT22;42924;37.564;-122.048;2022-08-03T06:26:38;28.30;99.90
20372;DHT22;42924;37.564;-122.048;2022-08-03T06:29:11;28.30;99.90
20372;DHT22;42924;37.564;-122.048;2022-08-03T06:31:41;28.40;99.90
20372;DHT22;42924;37.564;-122.048;2022-08-03T06:34:12;28.30;99.90
20372;DHT22;42924;37.564;-122.048;2022-08-03T06:37:01;28.10;99.90
20372;DHT22;42924;37.564;-122.048;2022-08-03T06:39:31;28.10;99.90
20372;DHT22;42924;37.564;-122.048;2022-08-03T06:42:02;28.10;99.90
20372;DHT22;42924;37.564;-122.048;2022-08-03T06:44:34;28.10;99.90
20372;DHT22;42924;37.564;-122.048;2022-08-03T06:47:03;28.00;99.90
20372;DHT22;42924;37.564;-122.048;2022-08-03T06:49:32;28.00;99.90
20372;DHT22;42924;37.564;-122.048;2022-08-03T06:52:04;28.10;99.90
20372;DHT22;42924;37.564;-122.048;2022-08-03T06:54:39;27.90;99.90
20372;DHT22;42924;37.564;-122.048;2022-08-03T06:57:09;28.00;99.90
20372;DHT22;42924;37.564;-122.048;2022-08-03T06:59:40;27.90;99.90
20372;DHT22;42924;37.564;-122.048;2022-08-03T07:02:30;27.90;99.90
20372;DHT22;42924;37.564;-122.048;2022-08-03T07:05:01;27.90;99.90
20372;DHT22;42924;37.564;-122.048;2022-08-03T07:07:33;27.90;99.90
20372;DHT22;42924;37.564;-122.048;2022-08-03T07:10:04;27.80;99.90
20372;DHT22;42924;37.564;-122.048;2022-08-03T07:12:35;27.80;99.90
20372;DHT22;42924;37.564;-122.048;2022-08-03T07:15:25;27.80;99.90
20372;DHT22;42924;37.564;-122.048;2022-08-03T07:18:15;27.70;99.90
20372;DHT22;42924;37.564;-122.048;2022-08-03T07:20:57;27.60;99.90
20372;DHT22;42924;37.564;-122.048;2022-08-03T07:23:28;27.60;99.90
20372;DHT22;42924;37.564;-122.048;2022-08-03T07:25:59;27.60;99.90
20372;DHT22;42924;37.564;-122.048;2022-08-03T07:28:30;27.60;99.90
20372;DHT22;42924;37.564;-122.048;2022-08-03T07:31:00;27.60;99.90
20372;DHT22;42924;37.564;-122.048;2022-08-03T07:33:30;27.60;99.90
20372;DHT22;42924;37.564;-122.048;2022-08-03T07:36:04;27.40;99.90
20372;DHT22;42924;37.564;-122.048;2022-08-03T07:38:34;27.40;99.90
20372;DHT22;42924;37.564;-122.048;2022-08-03T07:41:05;27.40;99.90
20372;DHT22;42924;37.564;-122.048;2022-08-03T07:43:37;27.40;99.90
20372;DHT22;42924;37.564;-122.048;2022-08-03T07:46:06;27.30;99.90
20372;DHT22;42924;37.564;-122.048;2022-08-03T07:48:37;27.20;99.90
20372;DHT22;42924;37.564;-122.048;2022-08-03T07:51:07;27.20;99.90
20372;DHT22;42924;37.564;-122.048;2022-08-03T07:53:37;27.20;99.90
20372;DHT22;42924;37.564;-122.048;2022-08-03T07:56:15;27.20;99.90
20372;DHT22;42924;37.564;-122.048;2022-08-03T07:58:47;27.10;99.90
20372;DHT22;42924;37.564;-122.048;2022-08-03T08:01:20;27.30;99.90
20372;DHT22;42924;37.564;-122.048;2022-08-03T08:03:55;27.20;99.90
20372;DHT22;42924;37.564;-122.048;2022-08-03T08:06:25;27.20;99.90
20372;DHT22;42924;37.564;-122.048;2022-08-03T08:08:55;27.30;99.90
20372;DHT22;42924;37.564;-122.048;2022-08-03T08:11:29;27.30;99.90
20372;DHT22;42924;37.564;-122.048;2022-08-03T08:14:03;27.00;99.90
20372;DHT22;42924;37.564;-122.048;2022-08-03T08:16:35;27.00;99.90
20372;DHT22;42924;37.564;-122.048;2022-08-03T08:19:09;27.00;99.90
20372;DHT22;42924;37.564;-122.048;2022-08-03T08:21:43;27.00;99.90
20372;DHT22;42924;37.564;-122.048;2022-08-03T08:24:30;26.90;99.90
20372;DHT22;42924;37.564;-122.048;2022-08-03T08:27:06;26.90;99.90
20372;DHT22;42924;37.564;-122.048;2022-08-03T08:29:37;26.90;99.90
20372;DHT22;42924;37.564;-122.048;2022-08-03T08:32:22;27.00;99.90
20372;DHT22;42924;37.564;-122.048;2022-08-03T08:34:52;26.80;99.90
20372;DHT22;42924;37.564;-122.048;2022-08-03T08:37:22;27.00;99.90
20372;DHT22;42924;37.564;-122.048;2022-08-03T08:39:57;27.00;99.90
20372;DHT22;42924;37.564;-122.048;2022-08-03T08:42:27;27.00;99.90
20372;DHT22;42924;37.564;-122.048;2022-08-03T08:45:00;26.90;99.90
20372;DHT22;42924;37.564;-122.048;2022-08-03T08:47:39;26.90;99.90
20372;DHT22;42924;37.564;-122.048;2022-08-03T08:50:22;27.00;99.90
20372;DHT22;42924;37.564;-122.048;2022-08-03T08:52:56;26.80;99.90
20372;DHT22;42924;37.564;-122.048;2022-08-03T08:55:31;26.80;99.90
20372;DHT22;42924;37.564;-122.048;2022-08-03T08:58:24;26.80;99.90
20372;DHT22;42924;37.564;-122.048;2022-08-03T09:00:59;26.80;99.90
20372;DHT22;42924;37.564;-122.048;2022-08-03T09:03:34;26.80;99.90
20372;DHT22;42924;37.564;-122.048;2022-08-03T09:06:06;26.80;99.90
20372;DHT22;42924;37.564;-122.048;2022-08-03T09:08:37;26.80;99.90
20372;DHT22;42924;37.564;-122.048;2022-08-03T09:11:07;26.70;99.90
20372;DHT22;42924;37.564;-122.048;2022-08-03T09:13:39;26.60;99.90
20372;DHT22;42924;37.564;-122.048;2022-08-03T09:16:14;26.60;99.90
20372;DHT22;42924;37.564;-122.048;2022-08-03T09:18:48;26.60;99.90
20372;DHT22;42924;37.564;-122.048;2022-08-03T09:21:27;26.60;99.90
20372;DHT22;42924;37.564;-122.048;2022-08-03T09:24:09;26.70;99.90
20372;DHT22;42924;37.564;-122.048;2022-08-03T09:26:58;26.50;99.90
20372;DHT22;42924;37.564;-122.048;2022-08-03T09:29:31;26.60;99.90
20372;DHT22;42924;37.564;-122.048;2022-08-03T09:32:03;26.50;99.90
20372;DHT22;42924;37.564;-122.048;2022-08-03T09:34:36;26.50;99.90
20372;DHT22;42924;37.564;-122.048;2022-08-03T09:37:15;26.60;99.90
20372;DHT22;42924;37.564;-122.048;2022-08-03T09:40:06;26.50;99.90
20372;DHT22;42924;37.564;-122.048;2022-08-03T09:42:36;26.40;99.90
20372;DHT22;42924;37.564;-122.048;2022-08-03T09:45:25;26.50;99.90
20372;DHT22;42924;37.564;-122.048;2022-08-03T09:47:56;26.40;99.90
20372;DHT22;42924;37.564;-122.048;2022-08-03T09:50:50;26.40;99.90
20372;DHT22;42924;37.564;-122.048;2022-08-03T09:53:49;26.40;99.90
20372;DHT22;42924;37.564;-122.048;2022-08-03T09:56:46;26.40;99.90
20372;DHT22;42924;37.564;-122.048;2022-08-03T09:59:27;26.30;99.90
20372;DHT22;42924;37.564;-122.048;2022-08-03T10:01:58;26.40;99.90
20372;DHT22;42924;37.564;-122.048;2022-08-03T10:04:28;26.30;99.90
20372;DHT22;42924;37.564;-122.048;2022-08-03T10:07:08;26.30;99.90
20372;DHT22;42924;37.564;-122.048;2022-08-03T10:09:55;26.30;99.90
20372;DHT22;42924;37.564;-122.048;2022-08-03T10:12:45;26.40;99.90
20372;DHT22;42924;37.564;-122.048;2022-08-03T10:15:18;26.30;99.90
20372;DHT22;42924;37.564;-122.048;2022-08-03T10:18:09;26.40;99.90
20372;DHT22;42924;37.564;-122.048;2022-08-03T10:20:49;26.40;99.90
20372;DHT22;42924;37.564;-122.048;2022-08-03T10:23:25;26.30;99.90
20372;DHT22;42924;37.564;-122.048;2022-08-03T10:26:02;26.40;99.90
20372;DHT22;42924;37.564;-122.048;2022-08-03T10:28:39;26.30;99.90
20372;DHT22;42924;37.564;-122.048;2022-08-03T10:31:15;26.40;99.90
20372;DHT22;42924;37.564;-122.048;2022-08-03T10:33:50;26.30;99.90
20372;DHT22;42924;37.564;-122.048;2022-08-03T10:36:23;26.20;99.90
20372;DHT22;42924;37.564;-122.048;2022-08-03T10:39:00;26.30;99.90
20372;DHT22;42924;37.564;-122.048;2022-08-03T10:41:44;26.40;99.90
20372;DHT22;42924;37.564;-122.048;2022-08-03T10:44:20;26.40;99.90
20372;DHT22;42924;37.564;-122.048;2022-08-03T10:46:53;26.20;99.90
20372;DHT22;42924;37.564;-122.048;2022-08-03T10:49:24;26.20;99.90
20372;DHT22;42924;37.564;-122.048;2022-08-03T10:52:04;26.20;99.90
20372;DHT22;42924;37.564;-122.048;2022-08-03T10:54:44;26.10;99.90
20372;DHT22;42924;37.564;-122.048;2022-08-03T10:57:51;26.30;99.90
20372;DHT22;42924;37.564;-122.048;2022-08-03T11:00:27;26.20;99.90
20372;DHT22;42924;37.564;-122.048;2022-08-03T11:03:12;26.20;99.90
20372;DHT22;42924;37.564;-122.048;2022-08-03T11:05:48;26.20;99.90
20372;DHT22;42924;37.564;-122.048;2022-08-03T11:08:21;26.20;99.90
20372;DHT22;42924;37.564;-122.048;2022-08-03T11:10:55;26.20;99.90
20372;DHT22;42924;37.564;-122.048;2022-08-03T11:13:28;26.10;99.90
20372;DHT22;42924;37.564;-122.048;2022-08-03T11:16:02;26.10;99.90
20372;DHT22;42924;37.564;-122.048;2022-08-03T11:19:20;26.20;99.90
20372;DHT22;42924;37.564;-122.048;2022-08-03T11:21:56;26.20;99.90
20372;DHT22;42924;37.564;-122.048;2022-08-03T11:30:06;26.10;99.90
20372;DHT22;42924;37.564;-122.048;2022-08-03T11:35:24;26.20;99.90
20372;DHT22;42924;37.564;-122.048;2022-08-03T11:40:47;26.10;99.90
20372;DHT22;42924;37.564;-122.048;2022-08-03T11:46:07;26.20;99.90
20372;DHT22;42924;37.564;-122.048;2022-08-03T11:49:04;26.20;99.90
20372;DHT22;42924;37.564;-122.048;2022-08-03T11:51:38;26.30;99.90
20372;DHT22;42924;37.564;-122.048;2022-08-03T11:54:11;26.20;99.90
20372;DHT22;42924;37.564;-122.048;2022-08-03T11:56:48;26.20;99.90
20372;DHT22;42924;37.564;-122.048;2022-08-03T11:59:34;26.20;99.90
20372;DHT22;42924;37.564;-122.048;2022-08-03T12:02:12;26.30;99.90
20372;DHT22;42924;37.564;-122.048;2022-08-03T12:04:53;26.20;99.90
20372;DHT22;42924;37.564;-122.048;2022-08-03T12:07:28;26.20;99.90
20372;DHT22;42924;37.564;-122.048;2022-08-03T12:10:20;26.10;99.90
20372;DHT22;42924;37.564;-122.048;2022-08-03T12:12:56;26.20;99.90
20372;DHT22;42924;37.564;-122.048;2022-08-03T12:15:28;26.30;99.90
20372;DHT22;42924;37.564;-122.048;2022-08-03T12:18:01;26.10;99.90
20372;DHT22;42924;37.564;-122.048;2022-08-03T12:20:34;26.20;99.90
20372;DHT22;42924;37.564;-122.048;2022-08-03T12:23:09;26.20;99.90
20372;DHT22;42924;37.564;-122.048;2022-08-03T12:25:41;26.30;99.90
20372;DHT22;42924;37.564;-122.048;2022-08-03T12:28:20;26.30;99.90
20372;DHT22;42924;37.564;-122.048;2022-08-03T12:31:07;26.30;99.90
20372;DHT22;42924;37.564;-122.048;2022-08-03T12:34:05;26.30;99.90
20372;DHT22;42924;37.564;-122.048;2022-08-03T12:36:37;26.40;99.90
20372;DHT22;42924;37.564;-122.048;2022-08-03T12:39:22;26.40;99.90
20372;DHT22;42924;37.564;-122.048;2022-08-03T12:41:56;26.30;99.90
20372;DHT22;42924;37.564;-122.048;2022-08-03T12:44:30;26.30;99.90
20372;DHT22;42924;37.564;-122.048;2022-08-03T12:47:02;26.40;99.90
20372;DHT22;42924;37.564;-122.048;2022-08-03T12:49:49;26.40;99.90
20372;DHT22;42924;37.564;-122.048;2022-08-03T12:52:21;26.50;99.90
20372;DHT22;42924;37.564;-122.048;2022-08-03T12:54:58;26.40;99.90
20372;DHT22;42924;37.564;-122.048;2022-08-03T12:57:41;26.40;99.90
20372;DHT22;42924;37.564;-122.048;2022-08-03T13:00:13;26.50;99.90
20372;DHT22;42924;37.564;-122.048;2022-08-03T13:03:04;26.60;99.90
20372;DHT22;42924;37.564;-122.048;2022-08-03T13:05:55;26.60;99.90
20372;DHT22;42924;37.564;-122.048;2022-08-03T13:08:26;26.60;99.90
20372;DHT22;42924;37.564;-122.048;2022-08-03T13:10:57;26.60;99.90
20372;DHT22;42924;37.564;-122.048;2022-08-03T13:13:39;26.60;99.90
20372;DHT22;42924;37.564;-122.048;2022-08-03T13:16:11;26.60;99.90
20372;DHT22;42924;37.564;-122.048;2022-08-03T13:18:50;26.70;99.90
20372;DHT22;42924;37.564;-122.048;2022-08-03T13:21:22;26.70;99.90
20372;DHT22;42924;37.564;-122.048;2022-08-03T13:23:55;26.80;99.90
20372;DHT22;42924;37.564;-122.048;2022-08-03T13:26:29;26.70;99.90
20372;DHT22;42924;37.564;-122.048;2022-08-03T13:28:59;26.80;99.90
20372;DHT22;42924;37.564;-122.048;2022-08-03T13:31:29;26.90;99.90
20372;DHT22;42924;37.564;-122.048;2022-08-03T13:34:26;26.90;99.90
20372;DHT22;42924;37.564;-122.048;2022-08-03T13:36:58;27.00;99.90
20372;DHT22;42924;37.564;-122.048;2022-08-03T13:39:42;27.00;99.90
20372;DHT22;42924;37.564;-122.048;2022-08-03T13:42:28;27.10;99.90
20372;DHT22;42924;37.564;-122.048;2022-08-03T13:44:58;27.10;99.90
20372;DHT22;42924;37.564;-122.048;2022-08-03T13:47:29;27.20;99.90
20372;DHT22;42924;37.564;-122.048;2022-08-03T13:50:00;27.20;99.90
20372;DHT22;42924;37.564;-122.048;2022-08-03T13:52:33;27.30;99.90
20372;DHT22;42924;37.564;-122.048;2022-08-03T13:55:05;27.50;99.90
20372;DHT22;42924;37.564;-122.048;2022-08-03T13:57:35;27.50;99.90
20372;DHT22;42924;37.564;-122.048;2022-08-03T14:00:26;27.40;99.90
20372;DHT22;42924;37.564;-122.048;2022-08-03T14:02:58;27.60;99.90
20372;DHT22;42924;37.564;-122.048;2022-08-03T14:05:36;27.60;99.90
20372;DHT22;42924;37.564;-122.048;2022-08-03T14:08:11;27.60;99.90
20372;DHT22;42924;37.564;-122.048;2022-08-03T14:10:45;27.70;99.90
20372;DHT22;42924;37.564;-122.048;2022-08-03T14:13:15;27.80;99.90
20372;DHT22;42924;37.564;-122.048;2022-08-03T14:15:48;27.80;99.90
20372;DHT22;42924;37.564;-122.048;2022-08-03T14:18:22;27.90;99.90
20372;DHT22;42924;37.564;-122.048;2022-08-03T14:21:02;28.10;99.90
20372;DHT22;42924;37.564;-122.048;2022-08-03T14:23:37;28.00;99.90
20372;DHT22;42924;37.564;-122.048;2022-08-03T14:26:07;27.90;99.90
20372;DHT22;42924;37.564;-122.048;2022-08-03T14:28:37;27.90;99.90
20372;DHT22;42924;37.564;-122.048;2022-08-03T14:31:08;28.00;99.90
20372;DHT22;42924;37.564;-122.048;2022-08-03T14:33:58;28.00;99.90
20372;DHT22;42924;37.564;-122.048;2022-08-03T14:36:32;28.10;99.90
20372;DHT22;42924;37.564;-122.048;2022-08-03T14:39:03;28.00;99.90
20372;DHT22;42924;37.564;-122.048;2022-08-03T14:41:32;28.10;99.90
20372;DHT22;42924;37.564;-122.048;2022-08-03T14:44:05;28.10;99.90
20372;DHT22;42924;37.564;-122.048;2022-08-03T14:46:36;28.10;99.90
20372;DHT22;42924;37.564;-122.048;2022-08-03T14:49:06;28.20;99.90
20372;DHT22;42924;37.564;-122.048;2022-08-03T14:51:56;28.20;99.90
20372;DHT22;42924;37.564;-122.048;2022-08-03T14:54:27;28.20;99.90
20372;DHT22;42924;37.564;-122.048;2022-08-03T14:57:01;28.40;99.90
20372;DHT22;42924;37.564;-122.048;2022-08-03T14:59:31;28.40;99.90
20372;DHT22;42924;37.564;-122.048;2022-08-03T15:02:23;28.60;99.90
20372;DHT22;42924;37.564;-122.048;2022-08-03T15:04:56;28.70;99.90
20372;DHT22;42924;37.564;-122.048;2022-08-03T15:07:26;28.80;99.90
20372;DHT22;42924;37.564;-122.048;2022-08-03T15:09:58;29.00;99.90
20372;DHT22;42924;37.564;-122.048;2022-08-03T15:12:29;28.80;99.90
20372;DHT22;42924;37.564;-122.048;2022-08-03T15:15:02;28.90;99.90
20372;DHT22;42924;37.564;-122.048;2022-08-03T15:17:33;28.90;99.90
20372;DHT22;42924;37.564;-122.048;2022-08-03T15:20:05;29.00;99.90
20372;DHT22;42924;37.564;-122.048;2022-08-03T15:22:57;29.10;99.90
20372;DHT22;42924;37.564;-122.048;2022-08-03T15:25:28;29.30;99.90
20372;DHT22;42924;37.564;-122.048;2022-08-03T15:28:18;29.30;99.90
20372;DHT22;42924;37.564;-122.048;2022-08-03T15:30:52;29.50;99.90
20372;DHT22;42924;37.564;-122.048;2022-08-03T15:33:21;29.60;99.90
20372;DHT22;42924;37.564;-122.048;2022-08-03T15:35:56;29.60;99.90
20372;DHT22;42924;37.564;-122.048;2022-08-03T15:38:26;29.50;99.90
20372;DHT22;42924;37.564;-122.048;2022-08-03T15:40:56;29.50;99.90
20372;DHT22;42924;37.564;-122.048;2022-08-03T15:43:27;29.60;99.90
20372;DHT22;42924;37.564;-122.048;2022-08-03T15:45:57;29.70;99.90
20372;DHT22;42924;37.564;-122.048;2022-08-03T15:48:48;29.70;99.90
20372;DHT22;42924;37.564;-122.048;2022-08-03T15:51:22;29.60;99.90
20372;DHT22;42924;37.564;-122.048;2022-08-03T15:53:52;29.70;99.90
20372;DHT22;42924;37.564;-122.048;2022-08-03T15:56:26;29.70;99.90
20372;DHT22;42924;37.564;-122.048;2022-08-03T15:58:56;29.80;99.90
20372;DHT22;42924;37.564;-122.048;2022-08-03T16:01:41;29.80;99.90
20372;DHT22;42924;37.564;-122.048;2022-08-03T16:04:17;30.00;99.90